createdAt,value
2022-09-05T00:00:02.183Z,102217.22
2022-09-05T00:02:41.716Z,102202.13
2022-09-05T00:05:46.509Z,102204.28
2022-09-05T00:08:39.111Z,102196.72
2022-09-05T00:11:43.176Z,102217.13
2022-09-05T00:14:48.723Z,102217.97
2022-09-05T00:17:22.539Z,102209.13
2022-09-05T00:24:20.975Z,102204.47
2022-09-05T00:24:42.355Z,102211.19
2022-09-05T00:26:17.199Z,102205.28
2022-09-05T00:28:54.823Z,102208.59
2022-09-05T00:31:53.417Z,102201.56
2022-09-05T00:34:47.868Z,102208.75
2022-09-05T00:37:28.949Z,102207.03
2022-09-05T00:40:18.387Z,102213.63
2022-09-05T00:42:50.215Z,102212.97
2022-09-05T00:45:27.585Z,102219.91
2022-09-05T00:48:05.650Z,102226.28
2022-09-05T00:50:44.553Z,102232.13
2022-09-05T00:53:18.115Z,102232.78
2022-09-05T00:55:58.842Z,102227.81
2022-09-05T00:58:57.435Z,102233.00
2022-09-05T01:01:33.614Z,102231.19
2022-09-05T01:04:23.678Z,102234.31
2022-09-05T01:07:08.126Z,102235.50
2022-09-05T01:09:51.718Z,102229.44
2022-09-05T01:12:36.514Z,102234.31
2022-09-05T01:15:23.439Z,102234.63
2022-09-05T01:18:16.355Z,102223.75
2022-09-05T01:21:02.847Z,102231.94
2022-09-05T01:24:04.801Z,102231.09
2022-09-05T01:26:59.184Z,102230.00
2022-09-05T01:29:38.570Z,102221.25
2022-09-05T01:32:22.857Z,102227.84
2022-09-05T01:35:02.836Z,102227.84
2022-09-05T01:37:39.285Z,102223.84
2022-09-05T01:40:25.674Z,102221.81
2022-09-05T01:43:12.066Z,102216.53
2022-09-05T01:45:51.543Z,102227.97
2022-09-05T01:48:30.744Z,102229.03
2022-09-05T01:51:28.370Z,102228.28
2022-09-05T01:54:19.836Z,102225.03
2022-09-05T01:57:04.770Z,102225.91
2022-09-05T01:59:42.283Z,102209.25
2022-09-05T02:02:37.721Z,102212.63
2022-09-05T02:05:47.369Z,102214.13
2022-09-05T02:08:30.608Z,102214.25
2022-09-05T02:11:08.229Z,102210.53
2022-09-05T02:14:01.109Z,102215.22
2022-09-05T02:16:42.535Z,102216.19
2022-09-05T02:19:18.183Z,102209.38
2022-09-05T02:21:56.090Z,102212.47
2022-09-05T02:24:29.337Z,102213.56
2022-09-05T02:28:05.036Z,102207.28
2022-09-05T02:30:20.502Z,102212.81
2022-09-05T02:33:06.569Z,102216.38
2022-09-05T02:35:46.057Z,102204.69
2022-09-05T02:42:07.991Z,102211.94
2022-09-05T02:45:09.514Z,102200.78
2022-09-05T02:45:16.412Z,102202.00
2022-09-05T02:47:18.801Z,102200.19
2022-09-05T02:54:14.260Z,102199.94
2022-09-05T02:57:28.265Z,102195.19
2022-09-05T02:57:33.495Z,102195.09
2022-09-05T02:59:09.035Z,102191.31
2022-09-05T03:01:57.389Z,102189.16
2022-09-05T03:04:32.732Z,102198.31
2022-09-05T03:07:15.342Z,102188.94
2022-09-05T03:10:01.703Z,102180.81
2022-09-05T03:13:10.052Z,102180.53
2022-09-05T03:16:19.340Z,102183.00
2022-09-05T03:19:20.499Z,102185.81
2022-09-05T03:22:22.515Z,102185.16
2022-09-05T03:25:25.934Z,102184.41
2022-09-05T03:28:20.725Z,102192.38
2022-09-05T03:31:04.011Z,102178.47
2022-09-05T03:33:54.758Z,102181.06
2022-09-05T03:37:03.331Z,102186.91
2022-09-05T03:40:21.225Z,102181.63
2022-09-05T03:43:10.176Z,102197.50
2022-09-05T03:46:03.296Z,102192.66
2022-09-05T03:48:53.231Z,102194.31
2022-09-05T03:57:12.367Z,102195.63
2022-09-05T03:57:22.569Z,102200.59
2022-09-05T03:58:03.452Z,102198.88
2022-09-05T04:01:28.302Z,102202.16
2022-09-05T04:08:09.002Z,102201.16
2022-09-05T04:08:16.281Z,102201.59
2022-09-05T04:09:50.665Z,102195.31
2022-09-05T04:12:22.981Z,102192.81
2022-09-05T04:14:55.531Z,102197.03
2022-09-05T04:17:32.865Z,102197.91
2022-09-05T04:20:06.275Z,102199.34
2022-09-05T04:22:59.404Z,102195.50
2022-09-05T04:25:40.580Z,102205.00
2022-09-05T04:28:20.625Z,102213.81
2022-09-05T04:30:53.648Z,102203.75
2022-09-05T04:33:35.918Z,102209.91
2022-09-05T04:36:18.091Z,102214.47
2022-09-05T04:38:46.999Z,102214.47
2022-09-05T04:41:17.225Z,102221.91
2022-09-05T04:43:50.245Z,102212.94
2022-09-05T04:46:24.800Z,102217.06
2022-09-05T04:49:03.250Z,102216.84
2022-09-05T04:52:00.214Z,102226.72
2022-09-05T04:54:46.909Z,102220.28
2022-09-05T04:57:22.942Z,102221.16
2022-09-05T05:05:59.243Z,102220.94
2022-09-05T05:06:17.341Z,102228.16
2022-09-05T05:06:20.303Z,102232.00
2022-09-05T05:08:51.680Z,102230.22
2022-09-05T05:17:20.926Z,102230.97
2022-09-05T05:18:13.565Z,102233.78
2022-09-05T05:18:16.109Z,102238.25
2022-09-05T05:20:40.257Z,102242.34
2022-09-05T05:23:11.643Z,102250.53
2022-09-05T05:25:48.814Z,102237.59
2022-09-05T05:28:27.049Z,102241.69
2022-09-05T05:31:01.862Z,102244.59
2022-09-05T05:33:33.697Z,102239.50
2022-09-05T05:36:04.770Z,102242.75
2022-09-05T05:38:41.236Z,102246.00
2022-09-05T05:41:18.622Z,102244.91
2022-09-05T05:43:48.387Z,102249.13
2022-09-05T05:46:28.003Z,102244.16
2022-09-05T05:49:09.626Z,102257.88
2022-09-05T05:52:02.124Z,102259.91
2022-09-05T05:54:38.483Z,102258.84
2022-09-05T05:57:39.942Z,102256.34
2022-09-05T06:00:27.349Z,102271.69
2022-09-05T06:03:36.345Z,102274.94
2022-09-05T06:06:21.790Z,102269.84
2022-09-05T06:14:48.343Z,102273.19
2022-09-05T06:15:00.483Z,102279.59
2022-09-05T06:15:46.733Z,102284.59
2022-09-05T06:18:45.826Z,102279.75
2022-09-05T06:22:11.591Z,102281.13
2022-09-05T06:25:17.698Z,102283.84
2022-09-05T06:28:18.530Z,102289.44
2022-09-05T06:30:57.618Z,102287.47
2022-09-05T06:33:57.004Z,102286.56
2022-09-05T06:36:43.948Z,102290.34
2022-09-05T06:39:18.729Z,102290.41
2022-09-05T06:42:05.016Z,102293.31
2022-09-05T06:44:50.481Z,102294.41
2022-09-05T06:47:24.120Z,102291.19
2022-09-05T06:50:24.303Z,102286.84
2022-09-05T06:53:27.211Z,102290.56
2022-09-05T06:56:14.394Z,102291.75
2022-09-05T06:59:42.687Z,102299.66
2022-09-05T07:02:44.348Z,102286.56
2022-09-05T07:05:39.470Z,102287.94
2022-09-05T07:08:34.946Z,102297.81
2022-09-05T07:11:16.378Z,102296.06
2022-09-05T07:13:56.028Z,102303.22
2022-09-05T07:16:37.744Z,102302.63
2022-09-05T07:19:27.280Z,102298.16
2022-09-05T07:22:48.805Z,102303.50
2022-09-05T07:25:10.655Z,102305.19
2022-09-05T07:28:25.731Z,102308.91
2022-09-05T07:30:35.299Z,102309.38
2022-09-05T07:33:05.412Z,102308.00
2022-09-05T07:35:41.477Z,102311.59
2022-09-05T07:38:15.016Z,102317.94
2022-09-05T07:40:51.421Z,102315.44
2022-09-05T07:43:24.022Z,102312.91
2022-09-05T07:46:06.397Z,102307.00
2022-09-05T07:48:39.721Z,102308.31
2022-09-05T07:53:46.412Z,102318.03
2022-09-05T07:57:01.854Z,102310.97
2022-09-05T07:59:54.845Z,102310.09
2022-09-05T08:02:22.838Z,102317.00
2022-09-05T08:04:51.499Z,102313.41
2022-09-05T08:07:49.440Z,102314.28
2022-09-05T08:10:16.039Z,102301.66
2022-09-05T08:13:24.167Z,102306.34
2022-09-05T08:16:10.763Z,102307.81
2022-09-05T08:18:40.947Z,102310.44
2022-09-05T08:21:13.480Z,102311.66
2022-09-05T08:23:53.129Z,102319.22
2022-09-05T08:26:32.759Z,102303.84
2022-09-05T08:29:18.774Z,102291.59
2022-09-05T08:31:52.595Z,102304.06
2022-09-05T08:34:43.984Z,102303.03
2022-09-05T08:37:21.296Z,102289.56
2022-09-05T08:39:57.496Z,102293.97
2022-09-05T08:43:00.410Z,102291.81
2022-09-05T08:46:40.345Z,102291.19
2022-09-05T08:48:41.514Z,102290.19
2022-09-05T08:51:20.655Z,102287.41
2022-09-05T08:54:17.593Z,102294.50
2022-09-05T08:56:56.292Z,102281.97
2022-09-05T09:00:19.753Z,102282.09
2022-09-05T09:03:04.500Z,102288.50
2022-09-05T09:06:13.690Z,102275.44
2022-09-05T09:08:55.905Z,102271.75
2022-09-05T09:11:34.276Z,102273.16
2022-09-05T09:14:36.577Z,102262.69
2022-09-05T09:17:20.083Z,102271.97
2022-09-05T09:19:52.230Z,102268.84
2022-09-05T09:22:38.096Z,102274.13
2022-09-05T09:25:14.450Z,102263.56
2022-09-05T09:28:48.538Z,102266.72
2022-09-05T09:30:58.115Z,102272.41
2022-09-05T09:33:35.465Z,102267.09
2022-09-05T09:36:08.809Z,102260.22
2022-09-05T09:38:44.705Z,102263.03
2022-09-05T09:41:38.528Z,102261.41
2022-09-05T09:44:36.009Z,102258.13
2022-09-05T09:47:14.060Z,102270.91
2022-09-05T09:50:03.131Z,102271.56
2022-09-05T09:53:03.738Z,102261.97
2022-09-05T09:56:10.037Z,102255.53
2022-09-05T09:59:23.322Z,102254.66
2022-09-05T10:02:21.991Z,102264.56
2022-09-05T10:10:35.027Z,102261.78
2022-09-05T10:10:54.448Z,102252.78
2022-09-05T10:11:51.403Z,102245.41
2022-09-05T10:14:49.408Z,102261.91
2022-09-05T10:17:49.432Z,102256.69
2022-09-05T10:20:38.200Z,102242.59
2022-09-05T10:23:34.441Z,102257.56
2022-09-05T10:26:47.324Z,102254.97
2022-09-05T10:29:39.018Z,102251.03
2022-09-05T10:35:11.522Z,102239.78
2022-09-05T10:35:14.792Z,102239.28
2022-09-05T10:37:55.966Z,102237.09
2022-09-05T10:40:28.922Z,102244.69
2022-09-05T10:43:02.519Z,102245.47
2022-09-05T10:45:44.937Z,102226.22
2022-09-05T10:48:18.814Z,102236.41
2022-09-05T10:50:53.922Z,102231.78
2022-09-05T10:53:40.532Z,102229.69
2022-09-05T10:56:15.211Z,102232.44
2022-09-05T10:59:33.160Z,102238.88
2022-09-05T11:02:30.417Z,102226.75
2022-09-05T11:04:54.471Z,102221.03
2022-09-05T11:07:32.375Z,102217.59
2022-09-05T11:10:11.706Z,102222.34
2022-09-05T11:12:58.591Z,102209.63
2022-09-05T11:15:33.955Z,102218.34
2022-09-05T11:18:05.175Z,102213.28
2022-09-05T11:20:45.966Z,102222.75
2022-09-05T11:23:21.931Z,102226.50
2022-09-05T11:26:00.755Z,102231.53
2022-09-05T11:28:37.674Z,102217.59
2022-09-05T11:31:26.359Z,102216.16
2022-09-05T11:39:46.455Z,102212.00
2022-09-05T11:40:07.271Z,102206.09
2022-09-05T11:41:09.778Z,102208.75
2022-09-05T11:44:26.298Z,102220.25
2022-09-05T11:47:39.804Z,102205.38
2022-09-05T11:50:44.807Z,102206.53
2022-09-05T11:53:44.552Z,102208.53
2022-09-05T11:57:32.292Z,102203.38
2022-09-05T12:00:31.225Z,102204.22
2022-09-05T12:03:38.496Z,102213.41
2022-09-05T12:06:39.063Z,102199.06
2022-09-05T12:09:27.924Z,102204.06
2022-09-05T12:12:18.622Z,102191.03
2022-09-05T12:15:17.008Z,102201.78
2022-09-05T12:18:00.661Z,102188.84
2022-09-05T12:20:43.105Z,102197.00
2022-09-05T12:23:36.864Z,102190.09
2022-09-05T12:27:38.280Z,102181.09
2022-09-05T12:29:32.769Z,102184.34
2022-09-05T12:32:41.777Z,102183.50
2022-09-05T12:36:12.247Z,102180.34
2022-09-05T12:40:57.405Z,102174.91
2022-09-05T12:41:39.617Z,102172.00
2022-09-05T12:44:37.494Z,102175.31
2022-09-05T12:46:46.619Z,102174.56
2022-09-05T12:49:35.097Z,102173.81
2022-09-05T12:52:07.162Z,102171.41
2022-09-05T12:54:45.494Z,102174.25
2022-09-05T13:02:27.804Z,102165.75
2022-09-05T13:03:07.651Z,102172.22
2022-09-05T13:03:27.096Z,102167.56
2022-09-05T13:06:03.293Z,102165.28
2022-09-05T13:08:44.168Z,102167.03
2022-09-05T13:14:47.560Z,102168.94
2022-09-05T13:14:59.364Z,102159.38
2022-09-05T13:16:59.388Z,102161.84
2022-09-05T13:19:37.490Z,102159.50
2022-09-05T13:22:08.664Z,102153.22
2022-09-05T13:24:41.627Z,102150.44
2022-09-05T13:27:15.764Z,102154.16
2022-09-05T13:30:51.895Z,102146.91
2022-09-05T13:37:55.596Z,102147.00
2022-09-05T13:38:17.485Z,102132.66
2022-09-05T13:38:48.982Z,102141.63
2022-09-05T13:41:27.297Z,102136.25
2022-09-05T13:44:00.253Z,102137.66
2022-09-05T13:46:59.427Z,102133.91
2022-09-05T13:49:33.286Z,102132.47
2022-09-05T13:52:19.762Z,102131.59
2022-09-05T13:54:51.958Z,102130.06
2022-09-05T13:57:37.155Z,102126.25
2022-09-05T14:00:28.958Z,102123.88
2022-09-05T14:03:50.617Z,102125.84
2022-09-05T14:06:47.838Z,102117.34
2022-09-05T14:09:43.230Z,102115.75
2022-09-05T14:12:29.594Z,102120.34
2022-09-05T14:15:10.031Z,102118.72
2022-09-05T14:17:57.751Z,102119.34
2022-09-05T14:20:49.820Z,102126.00
2022-09-05T14:23:20.052Z,102113.19
2022-09-05T14:25:52.902Z,102112.19
2022-09-05T14:28:26.809Z,102124.91
2022-09-05T14:37:41.285Z,102124.22
2022-09-05T14:37:45.203Z,102121.25
2022-09-05T14:37:45.689Z,102126.31
2022-09-05T14:40:36.629Z,102120.78
2022-09-05T14:43:37.802Z,102118.75
2022-09-05T14:46:28.441Z,102108.97
2022-09-05T14:49:29.015Z,102109.16
2022-09-05T14:51:58.432Z,102121.72
2022-09-05T15:02:45.639Z,102106.00
2022-09-05T15:02:52.292Z,102109.38
2022-09-05T15:03:05.350Z,102107.41
2022-09-05T15:05:41.938Z,102107.41
2022-09-05T15:08:18.278Z,102097.28
2022-09-05T15:12:15.727Z,102096.59
2022-09-05T15:13:58.048Z,102098.28
2022-09-05T15:16:27.487Z,102100.97
2022-09-05T15:18:56.316Z,102094.91
2022-09-05T15:21:34.084Z,102104.28
2022-09-05T15:24:12.919Z,102101.06
2022-09-05T15:26:52.692Z,102092.00
2022-09-05T15:29:24.020Z,102099.38
2022-09-05T15:32:08.989Z,102097.09
2022-09-05T15:34:39.431Z,102097.09
2022-09-05T15:37:24.270Z,102088.91
2022-09-05T15:40:02.415Z,102094.91
2022-09-05T15:42:51.140Z,102085.00
2022-09-05T15:45:24.293Z,102089.97
2022-09-05T15:48:23.399Z,102088.09
2022-09-05T15:50:58.625Z,102084.41
2022-09-05T15:53:29.703Z,102085.50
2022-09-05T15:56:15.117Z,102086.59
2022-09-05T15:58:53.152Z,102085.88
2022-09-05T16:01:48.639Z,102086.03
2022-09-05T16:10:18.161Z,102087.31
2022-09-05T16:10:38.382Z,102090.78
2022-09-05T16:10:45.591Z,102087.16
2022-09-05T16:12:51.949Z,102084.66
2022-09-05T16:17:59.076Z,102088.28
2022-09-05T16:23:13.819Z,102092.09
2022-09-05T16:23:25.483Z,102087.47
2022-09-05T16:24:06.307Z,102094.19
2022-09-05T16:26:40.700Z,102097.75
2022-09-05T16:29:19.445Z,102098.09
2022-09-05T16:31:57.177Z,102088.38
2022-09-05T16:34:32.020Z,102096.28
2022-09-05T16:37:08.920Z,102096.00
2022-09-05T16:39:42.456Z,102093.59
2022-09-05T16:42:18.083Z,102101.06
2022-09-05T16:44:52.755Z,102096.91
2022-09-05T16:47:28.448Z,102092.63
2022-09-05T16:50:04.307Z,102090.03
2022-09-05T16:52:53.519Z,102093.41
2022-09-05T16:55:31.360Z,102084.13
2022-09-05T16:58:05.467Z,102075.41
2022-09-05T17:00:52.073Z,102081.97
2022-09-05T17:03:28.691Z,102078.97
2022-09-05T17:06:07.759Z,102069.31
2022-09-05T17:08:37.586Z,102068.72
2022-09-05T17:11:13.721Z,102071.34
2022-09-05T17:14:07.333Z,102071.03
2022-09-05T17:16:41.933Z,102066.84
2022-09-05T17:19:16.331Z,102072.28
2022-09-05T17:23:45.581Z,102066.38
2022-09-05T17:29:05.976Z,102068.50
2022-09-05T17:29:30.407Z,102065.47
2022-09-05T17:33:47.133Z,102069.84
2022-09-05T17:36:20.123Z,102063.81
2022-09-05T17:39:04.089Z,102065.66
2022-09-05T17:42:05.139Z,102068.28
2022-09-05T17:44:50.670Z,102068.38
2022-09-05T17:47:35.671Z,102073.78
2022-09-05T17:50:14.575Z,102076.09
2022-09-05T17:53:27.018Z,102075.50
2022-09-05T17:56:12.949Z,102071.75
2022-09-05T17:59:02.297Z,102077.44
2022-09-05T18:01:32.476Z,102074.47
2022-09-05T18:04:15.805Z,102080.56
2022-09-05T18:07:00.484Z,102081.69
2022-09-05T18:09:59.101Z,102080.97
2022-09-05T18:13:12.415Z,102077.34
2022-09-05T18:16:11.093Z,102079.47
2022-09-05T18:19:03.826Z,102087.25
2022-09-05T18:21:49.595Z,102089.13
2022-09-05T18:24:32.676Z,102087.06
2022-09-05T18:30:06.006Z,102091.81
2022-09-05T18:33:53.537Z,102087.22
2022-09-05T18:36:28.101Z,102086.44
2022-09-05T18:39:37.851Z,102091.63
2022-09-05T18:42:25.962Z,102090.38
2022-09-05T18:45:03.254Z,102088.84
2022-09-05T18:47:51.202Z,102090.56
2022-09-05T18:50:29.214Z,102093.16
2022-09-05T18:53:08.919Z,102090.66
2022-09-05T18:56:12.254Z,102090.34
2022-09-05T18:58:34.501Z,102093.44
2022-09-05T19:01:20.936Z,102091.44
2022-09-05T19:03:52.493Z,102096.13
2022-09-05T19:06:34.984Z,102086.44
2022-09-05T19:09:08.343Z,102087.53
2022-09-05T19:11:52.810Z,102091.25
2022-09-05T19:14:33.618Z,102093.81
2022-09-05T19:17:08.770Z,102099.47
2022-09-05T19:20:33.321Z,102092.00
2022-09-05T19:23:10.314Z,102096.41
2022-09-05T19:25:42.229Z,102093.69
2022-09-05T19:33:15.672Z,102099.00
2022-09-05T19:37:06.828Z,102092.84
2022-09-05T19:37:15.602Z,102095.84
2022-09-05T19:37:26.270Z,102102.22
2022-09-05T19:43:15.658Z,102096.47
2022-09-05T19:47:38.726Z,102093.88
2022-09-05T19:47:46.937Z,102091.38
2022-09-05T19:48:26.931Z,102092.38
2022-09-05T19:50:56.751Z,102092.88
2022-09-05T19:53:26.261Z,102092.03
2022-09-05T19:55:54.838Z,102093.00
2022-09-05T19:58:24.465Z,102091.78
2022-09-05T20:01:03.443Z,102089.44
2022-09-05T20:03:39.314Z,102088.59
2022-09-05T20:06:28.988Z,102085.00
2022-09-05T20:09:14.496Z,102085.75
2022-09-05T20:11:49.466Z,102090.31
2022-09-05T20:14:20.815Z,102086.09
2022-09-05T20:16:49.990Z,102091.91
2022-09-05T20:19:28.777Z,102087.22
2022-09-05T20:22:12.746Z,102085.88
2022-09-05T20:24:52.675Z,102087.59
2022-09-05T20:27:27.077Z,102086.72
2022-09-05T20:29:58.310Z,102091.31
2022-09-05T20:32:39.366Z,102094.34
2022-09-05T20:37:37.497Z,102096.09
2022-09-05T20:43:21.190Z,102097.69
2022-09-05T20:43:32.826Z,102095.59
2022-09-05T20:43:57.415Z,102092.06
2022-09-05T20:54:07.046Z,102100.28
2022-09-05T20:54:08.386Z,102100.44
2022-09-05T20:54:22.767Z,102100.69
2022-09-05T20:55:39.994Z,102094.66
2022-09-05T20:58:13.650Z,102094.66
2022-09-05T21:01:19.757Z,102091.56
2022-09-05T21:03:38.143Z,102088.97
2022-09-05T21:06:24.197Z,102081.09
2022-09-05T21:08:56.037Z,102085.47
2022-09-05T21:11:31.885Z,102087.63
2022-09-05T21:14:04.469Z,102077.25
2022-09-05T21:16:35.642Z,102081.06
2022-09-05T21:19:03.855Z,102079.56
2022-09-05T21:21:33.591Z,102080.78
2022-09-05T21:24:16.502Z,102074.63
2022-09-05T21:26:47.665Z,102079.91
2022-09-05T21:29:24.996Z,102075.94
2022-09-05T21:32:02.024Z,102080.75
2022-09-05T21:34:34.337Z,102080.41
2022-09-05T21:37:07.837Z,102086.44
2022-09-05T21:39:40.137Z,102089.34
2022-09-05T21:42:31.522Z,102093.06
2022-09-05T21:47:44.280Z,102093.94
2022-09-05T21:47:53.118Z,102082.09
2022-09-05T21:50:31.677Z,102082.47
2022-09-05T21:54:06.501Z,102091.91
2022-09-05T21:59:15.091Z,102079.94
2022-09-05T21:59:33.301Z,102084.25
2022-09-05T22:01:50.984Z,102084.13
2022-09-05T22:04:21.268Z,102080.34
2022-09-05T22:06:49.310Z,102081.31
2022-09-05T22:09:17.633Z,102079.06
2022-09-05T22:11:50.679Z,102070.94
2022-09-05T22:14:19.329Z,102069.75
2022-09-05T22:16:50.647Z,102077.34
2022-09-05T22:19:37.441Z,102073.41
2022-09-05T22:22:16.621Z,102064.75
2022-09-05T22:24:49.654Z,102071.09
2022-09-05T22:27:20.151Z,102067.19
2022-09-05T22:29:50.671Z,102061.03
2022-09-05T22:32:33.885Z,102066.00
2022-09-05T22:35:27.854Z,102067.19
2022-09-05T22:37:59.126Z,102062.28
2022-09-05T22:40:28.033Z,102057.34
2022-09-05T22:42:57.095Z,102065.81
2022-09-05T22:45:25.147Z,102068.06
2022-09-05T22:47:55.009Z,102061.91
2022-09-05T22:50:23.625Z,102052.31
2022-09-05T22:52:51.750Z,102051.31
2022-09-05T22:55:19.983Z,102047.66
2022-09-05T22:57:48.030Z,102052.72
2022-09-05T23:00:16.323Z,102044.50
2022-09-05T23:02:46.930Z,102042.03
2022-09-05T23:05:18.813Z,102039.53
2022-09-05T23:07:46.800Z,102039.91
2022-09-05T23:10:14.920Z,102048.34
2022-09-05T23:12:42.967Z,102054.31
2022-09-05T23:15:11.724Z,102053.56
2022-09-05T23:17:39.648Z,102047.03
2022-09-05T23:20:09.009Z,102046.41
2022-09-05T23:22:39.152Z,102042.94
2022-09-05T23:25:08.058Z,102048.84
2022-09-05T23:27:36.861Z,102058.28
2022-09-05T23:30:05.987Z,102057.06
2022-09-05T23:32:33.940Z,102044.28
2022-09-05T23:35:02.251Z,102037.44
2022-09-05T23:37:30.192Z,102042.19
2022-09-05T23:39:59.567Z,102043.81
2022-09-05T23:42:27.577Z,102043.38
2022-09-05T23:44:55.604Z,102034.41
2022-09-05T23:47:24.118Z,102034.84
2022-09-05T23:49:52.167Z,102034.97
2022-09-05T23:52:20.014Z,102028.94
2022-09-05T23:54:47.940Z,102030.38
2022-09-05T23:57:22.223Z,102028.44
2022-09-05T23:59:52.481Z,102023.84
